createdAt,value
2019-05-05T00:00:47.705Z,80.21
2019-05-05T00:03:31.059Z,79.64
2019-05-05T00:05:59.271Z,79.64
2019-05-05T00:08:25.367Z,79.44
2019-05-05T00:10:54.132Z,79.39
2019-05-05T00:13:40.041Z,79.78
2019-05-05T00:16:20.248Z,79.37
2019-05-05T00:18:46.434Z,79.40
2019-05-05T00:21:12.520Z,78.86
2019-05-05T00:23:38.588Z,79.35
2019-05-05T00:26:04.883Z,80.32
2019-05-05T00:28:31.187Z,79.70
2019-05-05T00:30:57.392Z,79.71
2019-05-05T00:33:24.896Z,79.57
2019-05-05T00:35:51.306Z,79.65
2019-05-05T00:38:17.477Z,80.01
2019-05-05T00:40:44.353Z,80.01
2019-05-05T00:43:10.555Z,80.08
2019-05-05T00:45:37.968Z,80.04
2019-05-05T00:48:24.432Z,79.93
2019-05-05T00:50:51.936Z,79.81
2019-05-05T00:53:18.181Z,79.66
2019-05-05T00:55:44.401Z,80.13
2019-05-05T00:58:10.528Z,80.42
2019-05-05T01:00:38.628Z,81.03
2019-05-05T01:03:05.106Z,81.49
2019-05-05T01:05:36.205Z,80.86
2019-05-05T01:08:05.216Z,80.26
2019-05-05T01:10:32.896Z,79.85
2019-05-05T01:12:59.119Z,79.83
2019-05-05T01:15:25.576Z,79.63
2019-05-05T01:17:51.725Z,79.65
2019-05-05T01:20:17.947Z,79.25
2019-05-05T01:22:44.825Z,79.39
2019-05-05T01:25:11.629Z,79.92
2019-05-05T01:27:38.060Z,80.21
2019-05-05T01:30:09.203Z,79.55
2019-05-05T01:32:44.603Z,79.97
2019-05-05T01:35:14.332Z,79.70
2019-05-05T01:37:45.118Z,79.65
2019-05-05T01:40:16.082Z,79.73
2019-05-05T01:42:42.307Z,79.51
2019-05-05T01:45:08.692Z,78.68
2019-05-05T01:47:34.935Z,78.14
2019-05-05T01:50:13.771Z,79.49
2019-05-05T01:52:29.329Z,80.34
2019-05-05T01:54:55.546Z,80.17
2019-05-05T01:57:21.961Z,80.19
2019-05-05T01:59:48.225Z,80.13
2019-05-05T02:02:14.820Z,79.48
2019-05-05T02:04:41.132Z,79.04
2019-05-05T02:07:08.441Z,78.38
2019-05-05T02:09:35.358Z,78.52
2019-05-05T02:12:01.936Z,78.70
2019-05-05T02:14:28.246Z,78.27
2019-05-05T02:16:54.891Z,77.73
2019-05-05T02:19:22.296Z,77.63
2019-05-05T02:21:48.598Z,77.77
2019-05-05T02:24:14.920Z,77.92
2019-05-05T02:26:41.130Z,78.97
2019-05-05T02:29:18.216Z,78.31
2019-05-05T02:32:05.972Z,79.09
2019-05-05T02:34:35.654Z,79.66
2019-05-05T02:37:01.096Z,79.42
2019-05-05T02:39:27.294Z,78.93
2019-05-05T02:41:55.109Z,79.34
2019-05-05T02:44:25.347Z,79.34
2019-05-05T02:46:54.993Z,79.36
2019-05-05T02:49:20.990Z,78.56
2019-05-05T02:51:48.085Z,78.93
2019-05-05T02:54:14.995Z,79.19
2019-05-05T02:56:43.924Z,78.65
2019-05-05T02:59:14.724Z,78.77
2019-05-05T03:01:45.484Z,78.91
2019-05-05T03:04:14.169Z,78.72
2019-05-05T03:06:43.991Z,78.38
2019-05-05T03:09:13.778Z,80.05
2019-05-05T03:11:43.671Z,80.40
2019-05-05T03:14:14.346Z,80.07
2019-05-05T03:16:40.801Z,79.86
2019-05-05T03:19:08.991Z,79.34
2019-05-05T03:21:35.902Z,78.46
2019-05-05T03:24:03.746Z,79.37
2019-05-05T03:26:30.167Z,79.08
2019-05-05T03:28:58.323Z,79.21
2019-05-05T03:31:26.109Z,79.12
2019-05-05T03:33:55.045Z,79.26
2019-05-05T03:36:21.502Z,78.93
2019-05-05T03:38:48.230Z,79.54
2019-05-05T03:41:23.864Z,80.25
2019-05-05T03:44:01.301Z,81.11
2019-05-05T03:46:28.800Z,81.06
2019-05-05T03:48:55.080Z,80.08
2019-05-05T03:51:21.404Z,79.86
2019-05-05T03:53:47.712Z,79.45
2019-05-05T03:56:14.150Z,80.29
2019-05-05T03:58:40.515Z,80.38
2019-05-05T04:01:16.254Z,80.71
2019-05-05T04:03:43.527Z,80.60
2019-05-05T04:06:09.864Z,80.56
2019-05-05T04:08:36.464Z,80.72
2019-05-05T04:11:03.929Z,80.24
2019-05-05T04:13:31.331Z,79.96
2019-05-05T04:16:16.136Z,80.44
2019-05-05T04:18:47.312Z,80.79
2019-05-05T04:21:14.521Z,81.07
2019-05-05T04:23:40.738Z,80.92
2019-05-05T04:26:06.829Z,80.74
2019-05-05T04:28:34.558Z,80.57
2019-05-05T04:31:00.839Z,80.06
2019-05-05T04:33:27.079Z,79.32
2019-05-05T04:35:54.533Z,78.68
2019-05-05T04:38:21.897Z,78.81
2019-05-05T04:40:48.110Z,78.73
2019-05-05T04:43:14.461Z,78.81
2019-05-05T04:45:40.563Z,78.53
2019-05-05T04:48:08.659Z,78.84
2019-05-05T04:50:48.712Z,78.74
2019-05-05T04:53:19.446Z,77.29
2019-05-05T04:55:45.509Z,77.06
2019-05-05T04:58:13.547Z,76.70
2019-05-05T05:00:39.794Z,76.51
2019-05-05T05:03:08.946Z,76.54
2019-05-05T05:05:55.190Z,76.98
2019-05-05T05:08:21.255Z,77.22
2019-05-05T05:10:47.358Z,76.90
2019-05-05T05:13:13.968Z,77.05
2019-05-05T05:15:40.126Z,77.11
2019-05-05T05:18:08.253Z,76.51
2019-05-05T05:20:34.465Z,76.52
2019-05-05T05:23:00.548Z,76.65
2019-05-05T05:25:26.681Z,76.60
2019-05-05T05:27:53.634Z,76.74
2019-05-05T05:30:19.888Z,77.60
2019-05-05T05:32:46.209Z,78.00
2019-05-05T05:35:14.217Z,79.16
2019-05-05T05:37:40.412Z,79.64
2019-05-05T05:40:14.550Z,79.20
2019-05-05T05:42:43.836Z,78.77
2019-05-05T05:45:20.678Z,78.12
2019-05-05T05:48:06.698Z,78.56
2019-05-05T05:50:44.372Z,76.74
2019-05-05T05:53:10.761Z,77.69
2019-05-05T05:55:36.997Z,77.12
2019-05-05T05:58:04.826Z,75.57
2019-05-05T06:00:31.088Z,75.37
2019-05-05T06:02:57.222Z,75.78
2019-05-05T06:05:23.898Z,75.14
2019-05-05T06:07:50.076Z,74.80
2019-05-05T06:10:24.177Z,75.25
2019-05-05T06:12:45.448Z,73.98
2019-05-05T06:15:14.110Z,74.37
2019-05-05T06:17:40.104Z,74.31
2019-05-05T06:20:06.607Z,74.37
2019-05-05T06:22:34.377Z,73.84
2019-05-05T06:25:00.674Z,73.67
2019-05-05T06:27:26.916Z,73.64
2019-05-05T06:29:54.362Z,72.21
2019-05-05T06:32:20.676Z,72.27
2019-05-05T06:34:46.900Z,72.05
2019-05-05T06:37:14.529Z,72.02
2019-05-05T06:39:40.940Z,71.29
2019-05-05T06:42:21.047Z,72.87
2019-05-05T06:44:49.304Z,73.86
2019-05-05T06:47:17.533Z,72.91
2019-05-05T06:49:43.938Z,72.25
2019-05-05T06:52:10.342Z,72.13
2019-05-05T06:54:36.451Z,71.80
2019-05-05T06:57:04.586Z,70.85
2019-05-05T06:59:30.877Z,70.89
2019-05-05T07:01:57.166Z,71.91
2019-05-05T07:04:24.523Z,72.47
2019-05-05T07:06:56.161Z,71.70
2019-05-05T07:09:19.534Z,70.39
2019-05-05T07:11:46.220Z,71.33
2019-05-05T07:14:14.284Z,70.82
2019-05-05T07:16:40.831Z,71.00
2019-05-05T07:19:07.673Z,74.79
2019-05-05T07:21:35.480Z,74.69
2019-05-05T07:24:03.951Z,75.48
2019-05-05T07:26:30.823Z,74.20
2019-05-05T07:28:57.303Z,73.66
2019-05-05T07:31:23.977Z,72.25
2019-05-05T07:33:51.516Z,71.70
2019-05-05T07:36:25.706Z,70.43
2019-05-05T07:38:51.921Z,71.38
2019-05-05T07:41:18.263Z,71.94
2019-05-05T07:43:44.416Z,70.99
2019-05-05T07:46:10.738Z,71.93
2019-05-05T07:48:36.867Z,71.92
2019-05-05T07:51:05.336Z,71.81
2019-05-05T07:53:33.391Z,71.13
2019-05-05T07:55:59.421Z,70.61
2019-05-05T07:58:26.647Z,71.66
2019-05-05T08:00:54.086Z,72.67
2019-05-05T08:03:20.640Z,71.95
2019-05-05T08:05:46.849Z,71.59
2019-05-05T08:08:14.018Z,70.51
2019-05-05T08:10:40.186Z,71.05
2019-05-05T08:13:06.567Z,70.65
2019-05-05T08:15:34.498Z,70.91
2019-05-05T08:18:04.510Z,71.19
2019-05-05T08:20:35.586Z,71.17
2019-05-05T08:23:04.124Z,71.92
2019-05-05T08:25:45.383Z,71.39
2019-05-05T08:28:19.589Z,71.56
2019-05-05T08:30:47.817Z,71.75
2019-05-05T08:33:14.226Z,70.73
2019-05-05T08:35:40.399Z,69.78
2019-05-05T08:38:06.737Z,71.34
2019-05-05T08:40:34.553Z,71.25
2019-05-05T08:43:01.155Z,69.31
2019-05-05T08:45:27.379Z,69.46
2019-05-05T08:47:54.246Z,69.20
2019-05-05T08:50:24.033Z,70.65
2019-05-05T08:52:48.947Z,69.76
2019-05-05T08:55:15.313Z,71.40
2019-05-05T08:57:41.611Z,68.58
2019-05-05T09:00:09.340Z,67.71
2019-05-05T09:02:36.134Z,67.75
2019-05-05T09:05:04.539Z,64.86
2019-05-05T09:07:30.749Z,65.22
2019-05-05T09:09:57.102Z,66.67
2019-05-05T09:12:23.657Z,64.25
2019-05-05T09:14:50.126Z,65.28
2019-05-05T09:17:16.431Z,63.83
2019-05-05T09:19:44.862Z,61.75
2019-05-05T09:22:11.289Z,62.99
2019-05-05T09:24:39.516Z,65.17
2019-05-05T09:27:07.775Z,66.04
2019-05-05T09:29:36.014Z,66.06
2019-05-05T09:32:04.027Z,61.66
2019-05-05T09:34:31.607Z,58.43
2019-05-05T09:36:57.921Z,64.48
2019-05-05T09:39:24.743Z,62.41
2019-05-05T09:41:51.235Z,63.12
2019-05-05T09:44:18.239Z,62.78
2019-05-05T09:46:44.721Z,58.59
2019-05-05T09:49:11.048Z,56.50
2019-05-05T09:51:37.185Z,57.49
2019-05-05T09:54:13.786Z,59.76
2019-05-05T09:56:33.795Z,58.50
2019-05-05T09:58:59.865Z,60.92
2019-05-05T10:01:26.190Z,61.02
2019-05-05T10:03:54.317Z,58.72
2019-05-05T10:06:20.537Z,60.77
2019-05-05T10:08:46.714Z,59.47
2019-05-05T10:11:16.251Z,59.81
2019-05-05T10:13:41.098Z,58.07
2019-05-05T10:16:07.327Z,54.11
2019-05-05T10:18:35.737Z,56.50
2019-05-05T10:21:04.609Z,57.60
2019-05-05T10:23:34.197Z,57.31
2019-05-05T10:26:04.386Z,58.60
2019-05-05T10:28:31.699Z,58.51
2019-05-05T10:30:57.997Z,59.27
2019-05-05T10:33:24.682Z,59.47
2019-05-05T10:35:51.126Z,58.74
2019-05-05T10:38:17.452Z,60.85
2019-05-05T10:40:44.631Z,58.46
2019-05-05T10:43:11.106Z,60.46
2019-05-05T10:45:37.469Z,61.49
2019-05-05T10:48:04.234Z,58.98
2019-05-05T10:50:30.800Z,59.69
2019-05-05T10:52:57.554Z,58.44
2019-05-05T10:55:24.087Z,60.13
2019-05-05T10:57:50.390Z,60.28
2019-05-05T11:00:20.409Z,59.25
2019-05-05T11:02:46.671Z,56.38
2019-05-05T11:05:13.611Z,55.46
2019-05-05T11:07:40.660Z,57.25
2019-05-05T11:10:08.087Z,55.88
2019-05-05T11:12:34.288Z,59.91
2019-05-05T11:15:00.825Z,62.17
2019-05-05T11:17:27.141Z,61.69
2019-05-05T11:19:53.458Z,62.63
2019-05-05T11:22:19.674Z,62.99
2019-05-05T11:24:57.276Z,63.61
2019-05-05T11:27:14.144Z,60.87
2019-05-05T11:29:59.053Z,60.11
2019-05-05T11:32:44.132Z,63.73
2019-05-05T11:35:10.553Z,62.21
2019-05-05T11:37:36.694Z,61.18
2019-05-05T11:40:04.283Z,58.43
2019-05-05T11:42:30.508Z,56.29
2019-05-05T11:44:56.745Z,56.90
2019-05-05T11:47:24.525Z,54.23
2019-05-05T11:49:53.831Z,49.93
2019-05-05T11:52:19.022Z,49.93
2019-05-05T11:54:45.214Z,50.46
2019-05-05T11:57:13.443Z,54.07
2019-05-05T11:59:39.803Z,52.94
2019-05-05T12:02:06.125Z,51.25
2019-05-05T12:04:32.374Z,51.25
2019-05-05T12:06:58.613Z,52.83
2019-05-05T12:09:26.652Z,48.03
2019-05-05T12:11:54.581Z,46.65
2019-05-05T12:14:26.534Z,49.21
2019-05-05T12:16:52.867Z,48.42
2019-05-05T12:19:19.055Z,44.80
2019-05-05T12:21:45.398Z,43.97
2019-05-05T12:24:14.353Z,45.50
2019-05-05T12:26:51.514Z,45.60
2019-05-05T12:29:17.873Z,42.87
2019-05-05T12:31:45.916Z,44.06
2019-05-05T12:34:12.398Z,46.03
2019-05-05T12:36:38.509Z,45.70
2019-05-05T12:39:06.165Z,49.62
2019-05-05T12:41:33.895Z,46.20
2019-05-05T12:44:01.239Z,45.62
2019-05-05T12:46:38.664Z,46.91
2019-05-05T12:49:06.858Z,45.82
2019-05-05T12:51:34.435Z,46.63
2019-05-05T12:54:00.845Z,44.34
2019-05-05T12:56:27.217Z,44.95
2019-05-05T12:58:54.567Z,45.84
2019-05-05T13:01:28.856Z,46.33
2019-05-05T13:03:55.299Z,43.66
2019-05-05T13:06:23.845Z,45.36
2019-05-05T13:08:49.946Z,46.37
2019-05-05T13:11:16.381Z,46.04
2019-05-05T13:13:43.998Z,46.12
2019-05-05T13:16:13.502Z,43.65
2019-05-05T13:18:39.870Z,42.49
2019-05-05T13:21:25.019Z,40.53
2019-05-05T13:23:59.193Z,39.79
2019-05-05T13:26:40.578Z,41.17
2019-05-05T13:29:06.939Z,42.58
2019-05-05T13:31:33.763Z,45.70
2019-05-05T13:34:00.143Z,48.82
2019-05-05T13:36:26.506Z,49.60
2019-05-05T13:38:54.596Z,48.53
2019-05-05T13:41:21.056Z,50.09
2019-05-05T13:43:47.473Z,50.05
2019-05-05T13:46:18.571Z,51.64
2019-05-05T13:48:44.942Z,51.51
2019-05-05T13:51:15.733Z,50.51
2019-05-05T13:53:44.611Z,50.05
2019-05-05T13:56:12.572Z,48.92
2019-05-05T13:58:39.228Z,48.63
2019-05-05T14:01:05.575Z,49.55
2019-05-05T14:03:33.554Z,48.80
2019-05-05T14:06:00.086Z,48.66
2019-05-05T14:08:27.166Z,49.51
2019-05-05T14:10:54.023Z,49.03
2019-05-05T14:13:20.401Z,49.83
2019-05-05T14:15:46.743Z,49.00
2019-05-05T14:18:14.312Z,48.77
2019-05-05T14:20:40.552Z,47.63
2019-05-05T14:23:06.879Z,44.48
2019-05-05T14:25:33.278Z,44.48
2019-05-05T14:27:59.487Z,45.06
2019-05-05T14:30:44.565Z,44.99
2019-05-05T14:33:18.907Z,47.10
2019-05-05T14:35:53.978Z,46.50
2019-05-05T14:38:31.357Z,47.31
2019-05-05T14:40:57.743Z,48.13
2019-05-05T14:43:25.202Z,46.63
2019-05-05T14:45:54.619Z,45.94
2019-05-05T14:48:21.187Z,47.21
2019-05-05T14:50:47.521Z,48.27
2019-05-05T14:53:14.571Z,47.59
2019-05-05T14:55:40.991Z,48.13
2019-05-05T14:58:07.306Z,48.19
2019-05-05T15:00:33.803Z,51.78
2019-05-05T15:03:00.282Z,50.77
2019-05-05T15:05:37.812Z,53.93
2019-05-05T15:08:06.163Z,58.15
2019-05-05T15:10:49.179Z,59.42
2019-05-05T15:13:15.631Z,56.91
2019-05-05T15:15:42.134Z,56.88
2019-05-05T15:18:08.497Z,56.88
2019-05-05T15:20:36.571Z,60.93
2019-05-05T15:23:04.717Z,60.74
2019-05-05T15:25:34.019Z,62.17
2019-05-05T15:28:00.285Z,62.74
2019-05-05T15:30:27.311Z,60.80
2019-05-05T15:32:54.185Z,58.83
2019-05-05T15:35:20.417Z,58.00
2019-05-05T15:37:46.714Z,61.45
2019-05-05T15:40:14.318Z,56.85
2019-05-05T15:42:40.774Z,58.29
2019-05-05T15:45:07.296Z,59.70
2019-05-05T15:47:34.297Z,53.37
2019-05-05T15:50:00.643Z,59.53
2019-05-05T15:52:26.752Z,58.32
2019-05-05T15:54:53.955Z,58.68
2019-05-05T15:57:20.320Z,56.78
2019-05-05T15:59:46.630Z,55.76
2019-05-05T16:02:13.414Z,55.81
2019-05-05T16:04:39.841Z,53.62
2019-05-05T16:07:06.051Z,56.95
2019-05-05T16:09:32.344Z,55.19
2019-05-05T16:11:58.645Z,53.81
2019-05-05T16:14:25.247Z,57.10
2019-05-05T16:16:59.592Z,54.56
2019-05-05T16:19:45.958Z,53.11
2019-05-05T16:22:14.289Z,52.77
2019-05-05T16:24:44.605Z,53.72
2019-05-05T16:27:21.138Z,52.82
2019-05-05T16:29:39.054Z,53.43
2019-05-05T16:32:18.443Z,53.01
2019-05-05T16:34:33.740Z,54.99
2019-05-05T16:36:59.991Z,54.30
2019-05-05T16:39:26.179Z,56.12
2019-05-05T16:41:53.817Z,57.43
2019-05-05T16:44:20.313Z,54.94
2019-05-05T16:46:46.628Z,54.04
2019-05-05T16:49:14.015Z,55.44
2019-05-05T16:51:43.884Z,53.52
2019-05-05T16:54:13.711Z,52.89
2019-05-05T16:56:39.854Z,54.31
2019-05-05T16:59:06.179Z,51.53
2019-05-05T17:01:33.967Z,50.94
2019-05-05T17:04:09.256Z,48.42
2019-05-05T17:06:28.864Z,50.94
2019-05-05T17:08:54.993Z,50.84
2019-05-05T17:11:21.388Z,49.34
2019-05-05T17:13:55.171Z,49.92
2019-05-05T17:16:38.467Z,51.45
2019-05-05T17:19:09.439Z,49.73
2019-05-05T17:21:46.666Z,47.31
2019-05-05T17:24:14.099Z,49.71
2019-05-05T17:26:40.419Z,47.30
2019-05-05T17:29:06.710Z,49.74
2019-05-05T17:31:33.974Z,49.54
2019-05-05T17:34:00.287Z,51.67
2019-05-05T17:36:26.418Z,48.82
2019-05-05T17:38:54.380Z,50.66
2019-05-05T17:41:25.351Z,47.94
2019-05-05T17:43:54.173Z,47.31
2019-05-05T17:46:25.344Z,49.60
2019-05-05T17:48:53.997Z,47.54
2019-05-05T17:51:31.459Z,48.24
2019-05-05T17:54:14.866Z,48.86
2019-05-05T17:56:41.085Z,47.51
2019-05-05T17:59:07.439Z,47.81
2019-05-05T18:01:33.777Z,46.23
2019-05-05T18:04:00.083Z,46.30
2019-05-05T18:06:44.079Z,47.38
2019-05-05T18:09:23.413Z,47.72
2019-05-05T18:11:51.233Z,48.05
2019-05-05T18:14:35.859Z,46.85
2019-05-05T18:17:04.095Z,48.11
2019-05-05T18:19:30.529Z,47.60
2019-05-05T18:21:56.989Z,46.48
2019-05-05T18:24:24.271Z,46.06
2019-05-05T18:26:50.910Z,46.47
2019-05-05T18:29:18.209Z,45.54
2019-05-05T18:31:44.474Z,46.46
2019-05-05T18:34:10.855Z,47.65
2019-05-05T18:36:37.132Z,47.99
2019-05-05T18:39:05.961Z,48.92
2019-05-05T18:41:38.654Z,49.81
2019-05-05T18:44:15.801Z,50.55
2019-05-05T18:46:43.594Z,51.57
2019-05-05T18:49:09.894Z,52.73
2019-05-05T18:51:36.009Z,53.48
2019-05-05T18:54:04.053Z,53.53
2019-05-05T18:56:30.584Z,52.33
2019-05-05T18:58:56.976Z,54.85
2019-05-05T19:01:37.350Z,53.70
2019-05-05T19:04:05.686Z,55.14
2019-05-05T19:06:54.556Z,55.79
2019-05-05T19:09:22.141Z,56.63
2019-05-05T19:11:48.349Z,56.90
2019-05-05T19:14:14.773Z,57.64
2019-05-05T19:16:41.214Z,58.77
2019-05-05T19:19:07.635Z,59.37
2019-05-05T19:21:36.055Z,57.89
2019-05-05T19:24:03.857Z,57.29
2019-05-05T19:26:30.157Z,58.75
2019-05-05T19:28:56.518Z,58.06
2019-05-05T19:31:22.816Z,58.52
2019-05-05T19:33:49.286Z,57.04
2019-05-05T19:36:15.676Z,56.96
2019-05-05T19:38:44.018Z,55.80
2019-05-05T19:41:09.946Z,54.89
2019-05-05T19:43:38.060Z,56.36
2019-05-05T19:46:06.294Z,56.75
2019-05-05T19:48:34.000Z,55.95
2019-05-05T19:51:07.820Z,56.38
2019-05-05T19:53:35.594Z,56.40
2019-05-05T19:56:04.089Z,57.85
2019-05-05T19:58:30.602Z,57.58
2019-05-05T20:00:58.668Z,59.58
2019-05-05T20:03:25.008Z,59.05
2019-05-05T20:05:51.349Z,60.54
2019-05-05T20:08:17.473Z,60.95
2019-05-05T20:10:44.301Z,60.53
2019-05-05T20:13:10.668Z,60.41
2019-05-05T20:15:38.789Z,60.75
2019-05-05T20:18:04.887Z,59.83
2019-05-05T20:20:31.066Z,62.50
2019-05-05T20:22:57.402Z,62.19
2019-05-05T20:25:24.402Z,62.44
2019-05-05T20:27:50.782Z,63.85
2019-05-05T20:30:17.616Z,62.93
2019-05-05T20:32:56.314Z,62.53
2019-05-05T20:35:33.680Z,64.35
2019-05-05T20:38:01.508Z,64.85
2019-05-05T20:40:35.390Z,64.96
2019-05-05T20:43:03.819Z,64.87
2019-05-05T20:45:31.625Z,64.40
2019-05-05T20:47:57.891Z,64.44
2019-05-05T20:50:24.698Z,63.50
2019-05-05T20:52:50.887Z,63.42
2019-05-05T20:55:17.104Z,63.26
2019-05-05T20:57:44.307Z,65.04
2019-05-05T21:00:14.524Z,64.28
2019-05-05T21:02:43.581Z,63.34
2019-05-05T21:05:10.053Z,63.37
2019-05-05T21:07:36.760Z,63.02
2019-05-05T21:10:06.126Z,62.41
2019-05-05T21:12:40.117Z,60.90
2019-05-05T21:15:00.793Z,60.95
2019-05-05T21:17:27.194Z,61.84
2019-05-05T21:19:53.459Z,62.04
2019-05-05T21:22:38.216Z,62.28
2019-05-05T21:25:07.316Z,64.88
2019-05-05T21:27:34.122Z,65.74
2019-05-05T21:30:00.299Z,65.32
2019-05-05T21:32:26.480Z,63.49
2019-05-05T21:34:52.588Z,64.99
2019-05-05T21:37:18.851Z,63.91
2019-05-05T21:39:45.957Z,63.89
2019-05-05T21:42:14.069Z,63.62
2019-05-05T21:44:40.390Z,63.53
2019-05-05T21:47:06.882Z,63.25
2019-05-05T21:49:33.773Z,63.74
2019-05-05T21:52:11.266Z,63.36
2019-05-05T21:54:48.389Z,62.24
2019-05-05T21:57:19.315Z,63.21
2019-05-05T21:59:54.878Z,65.33
2019-05-05T22:02:15.373Z,65.34
2019-05-05T22:04:41.744Z,65.80
2019-05-05T22:07:08.163Z,65.19
2019-05-05T22:09:35.598Z,64.60
2019-05-05T22:12:04.051Z,64.43
2019-05-05T22:14:30.092Z,65.38
2019-05-05T22:16:56.274Z,64.95
2019-05-05T22:19:24.542Z,65.04
2019-05-05T22:22:07.683Z,65.79
2019-05-05T22:24:35.756Z,64.50
2019-05-05T22:27:01.976Z,65.93
2019-05-05T22:29:28.188Z,65.50
2019-05-05T22:31:54.352Z,66.66
2019-05-05T22:34:20.554Z,66.17
2019-05-05T22:36:46.929Z,67.74
2019-05-05T22:39:16.481Z,69.35
2019-05-05T22:41:41.343Z,68.44
2019-05-05T22:44:07.651Z,66.96
2019-05-05T22:46:34.750Z,68.82
2019-05-05T22:49:03.941Z,67.97
2019-05-05T22:51:31.358Z,67.06
2019-05-05T22:53:57.552Z,67.07
2019-05-05T22:56:24.147Z,68.20
2019-05-05T22:58:50.245Z,68.20
2019-05-05T23:01:16.648Z,68.61
2019-05-05T23:03:56.619Z,68.70
2019-05-05T23:06:30.393Z,68.39
2019-05-05T23:08:56.532Z,69.43
2019-05-05T23:11:23.930Z,69.89
2019-05-05T23:13:50.272Z,69.24
2019-05-05T23:16:27.163Z,69.79
2019-05-05T23:18:54.742Z,69.36
2019-05-05T23:21:29.216Z,69.42
2019-05-05T23:24:14.380Z,68.62
2019-05-05T23:26:43.773Z,68.87
2019-05-05T23:29:10.204Z,69.30
2019-05-05T23:31:36.382Z,69.94
2019-05-05T23:34:03.970Z,68.63
2019-05-05T23:36:30.282Z,68.40
2019-05-05T23:38:56.467Z,68.19
2019-05-05T23:41:23.912Z,69.71
2019-05-05T23:43:50.257Z,68.59
2019-05-05T23:46:16.438Z,70.23
2019-05-05T23:48:42.527Z,71.38
2019-05-05T23:51:08.627Z,71.78
2019-05-05T23:53:34.942Z,71.62
2019-05-05T23:56:01.226Z,72.35
2019-05-05T23:58:27.354Z,72.09
